Terminal Aerodrome Forecast
Issued by NWS

Home | Current Version | Previous Version | Text Only | Print | Product List | Glossary Off
Versions: 1 2 3 4 5 6 7 8 9 10 11 12 13 14 15

000
FTUS43 KMPX 032107 AAA
TAFRNH
TAF AMD
KRNH 032107Z 0321/0418 30012G20KT P6SM BKN025
      TEMPO 0321/0324 SCT025
     FM040000 31014G24KT 6SM BLSN FEW020 BKN090
     FM040300 30012G23KT P6SM SKC
     FM040700 29010KT P6SM SKC=

USA.gov is the U.S. government's official web portal to all federal, state and local government web resources and services.